createdAt,value
2023-02-13T00:01:01.160Z,4.90
2023-02-13T00:03:31.988Z,4.90
2023-02-13T00:06:01.510Z,4.80
2023-02-13T00:08:30.559Z,4.80
2023-02-13T00:11:01.389Z,4.80
2023-02-13T00:13:30.324Z,4.70
2023-02-13T00:16:00.912Z,4.70
2023-02-13T00:18:30.958Z,4.70
2023-02-13T00:21:01.816Z,4.60
2023-02-13T00:23:32.455Z,4.60
2023-02-13T00:26:06.788Z,4.60
2023-02-13T00:28:36.755Z,4.60
2023-02-13T00:31:07.826Z,4.60
2023-02-13T00:33:37.351Z,4.60
2023-02-13T00:36:09.024Z,4.60
2023-02-13T00:38:39.438Z,4.70
2023-02-13T00:41:10.676Z,4.70
2023-02-13T00:43:40.136Z,4.70
2023-02-13T00:46:09.163Z,4.70
2023-02-13T00:48:38.724Z,4.80
2023-02-13T00:51:09.353Z,4.70
2023-02-13T00:53:39.748Z,4.70
2023-02-13T00:56:11.943Z,4.70
2023-02-13T00:58:41.385Z,4.70
2023-02-13T01:01:10.251Z,4.80
2023-02-13T01:03:39.585Z,4.80
2023-02-13T01:06:09.166Z,4.70
2023-02-13T01:08:41.189Z,4.70
2023-02-13T01:11:12.765Z,4.70
2023-02-13T01:13:42.038Z,4.70
2023-02-13T01:16:11.139Z,4.70
2023-02-13T01:18:41.566Z,4.60
2023-02-13T01:21:17.373Z,4.70
2023-02-13T01:23:46.896Z,4.70
2023-02-13T01:26:20.547Z,4.80
2023-02-13T01:28:54.644Z,4.80
2023-02-13T01:31:24.497Z,4.80
2023-02-13T01:33:54.247Z,4.80
2023-02-13T01:36:24.460Z,4.80
2023-02-13T01:38:55.912Z,4.80
2023-02-13T01:41:29.382Z,4.70
2023-02-13T01:44:00.606Z,4.80
2023-02-13T01:46:34.634Z,4.80
2023-02-13T01:49:13.426Z,4.80
2023-02-13T01:51:43.411Z,4.90
2023-02-13T01:54:16.238Z,4.80
2023-02-13T01:56:50.372Z,4.90
2023-02-13T01:59:23.031Z,4.90
2023-02-13T02:01:52.838Z,4.80
2023-02-13T02:04:25.315Z,4.80
2023-02-13T02:06:57.461Z,4.80
2023-02-13T02:09:36.611Z,4.90
2023-02-13T02:12:16.509Z,4.90
2023-02-13T02:14:46.131Z,4.80
2023-02-13T02:17:15.156Z,4.80
2023-02-13T02:19:53.475Z,4.80
2023-02-13T02:23:08.365Z,4.80
2023-02-13T02:26:13.550Z,4.90
2023-02-13T02:29:10.197Z,4.90
2023-02-13T02:32:11.852Z,4.90
2023-02-13T02:34:52.761Z,4.90
2023-02-13T02:37:36.862Z,4.90
2023-02-13T02:40:18.452Z,4.90
2023-02-13T02:43:02.774Z,4.90
2023-02-13T02:45:41.216Z,5.00
2023-02-13T02:48:39.948Z,5.00
2023-02-13T02:51:21.269Z,5.00
2023-02-13T02:54:03.954Z,4.90
2023-02-13T02:56:39.886Z,4.90
2023-02-13T02:59:30.945Z,5.00
2023-02-13T03:02:20.897Z,4.90
2023-02-13T03:05:13.495Z,4.90
2023-02-13T03:07:42.943Z,4.90
2023-02-13T03:10:36.690Z,5.00
2023-02-13T03:13:23.457Z,4.90
2023-02-13T03:16:11.892Z,5.00
2023-02-13T03:19:02.009Z,4.90
2023-02-13T03:22:01.755Z,5.00
2023-02-13T03:24:40.940Z,5.00
2023-02-13T03:27:16.694Z,4.90
2023-02-13T03:30:12.276Z,4.80
2023-02-13T03:32:47.401Z,4.80
2023-02-13T03:35:46.145Z,4.80
2023-02-13T03:38:24.101Z,4.70
2023-02-13T03:41:15.434Z,4.70
2023-02-13T03:43:49.119Z,4.70
2023-02-13T03:46:20.005Z,4.60
2023-02-13T03:49:07.320Z,4.60
2023-02-13T03:51:41.616Z,4.60
2023-02-13T03:54:20.910Z,4.70
2023-02-13T03:57:09.525Z,4.70
2023-02-13T03:59:39.350Z,4.70
2023-02-13T04:02:14.449Z,4.70
2023-02-13T04:04:51.576Z,4.70
2023-02-13T04:07:31.258Z,4.70
2023-02-13T04:10:05.698Z,4.70
2023-02-13T04:12:44.451Z,4.70
2023-02-13T04:15:20.285Z,4.70
2023-02-13T04:17:53.726Z,4.70
2023-02-13T04:20:22.826Z,4.70
2023-02-13T04:22:51.462Z,4.70
2023-02-13T04:25:22.082Z,4.70
2023-02-13T04:27:51.089Z,4.60
2023-02-13T04:30:20.468Z,4.50
2023-02-13T04:32:50.075Z,4.50
2023-02-13T04:35:19.177Z,4.40
2023-02-13T04:37:48.397Z,4.40
2023-02-13T04:40:17.231Z,4.40
2023-02-13T04:42:49.828Z,4.40
2023-02-13T04:45:20.042Z,4.30
2023-02-13T04:47:52.590Z,4.30
2023-02-13T04:50:22.893Z,4.30
2023-02-13T04:52:55.210Z,4.20
2023-02-13T04:55:24.897Z,4.20
2023-02-13T04:57:56.305Z,4.20
2023-02-13T05:00:27.907Z,4.20
2023-02-13T05:03:01.866Z,4.20
2023-02-13T05:05:30.995Z,4.20
2023-02-13T05:08:00.120Z,4.20
2023-02-13T05:10:29.845Z,4.10
2023-02-13T05:13:01.487Z,4.10
2023-02-13T05:15:30.771Z,4.10
2023-02-13T05:18:00.116Z,4.20
2023-02-13T05:20:29.562Z,4.10
2023-02-13T05:23:15.550Z,4.10
2023-02-13T05:25:44.845Z,4.10
2023-02-13T05:28:29.284Z,4.10
2023-02-13T05:30:59.288Z,4.10
2023-02-13T05:33:28.818Z,4.10
2023-02-13T05:35:57.647Z,4.10
2023-02-13T05:38:27.178Z,4.10
2023-02-13T05:40:56.664Z,4.10
2023-02-13T05:43:27.576Z,4.10
2023-02-13T05:46:04.585Z,4.10
2023-02-13T05:48:34.142Z,4.10
2023-02-13T05:51:03.734Z,4.20
2023-02-13T05:53:35.665Z,4.10
2023-02-13T05:56:06.068Z,4.10
2023-02-13T05:58:39.504Z,4.10
2023-02-13T06:01:29.230Z,4.20
2023-02-13T06:04:00.053Z,4.20
2023-02-13T06:06:30.342Z,4.80
2023-02-13T06:09:00.271Z,4.20
2023-02-13T06:11:32.825Z,4.30
2023-02-13T06:14:32.999Z,4.30
2023-02-13T06:17:06.302Z,4.30
2023-02-13T06:19:37.079Z,4.30
2023-02-13T06:22:29.394Z,4.40
2023-02-13T06:25:01.196Z,4.40
2023-02-13T06:27:32.167Z,4.40
2023-02-13T06:30:32.490Z,4.40
2023-02-13T06:33:06.837Z,4.50
2023-02-13T06:35:40.774Z,4.60
2023-02-13T06:38:12.616Z,4.60
2023-02-13T06:40:44.662Z,4.60
2023-02-13T06:43:18.191Z,4.60
2023-02-13T06:45:52.166Z,4.90
2023-02-13T06:48:23.226Z,4.70
2023-02-13T06:50:55.226Z,4.70
2023-02-13T06:53:26.919Z,4.80
2023-02-13T06:56:11.400Z,4.80
2023-02-13T06:58:44.264Z,4.80
2023-02-13T07:01:21.982Z,4.80
2023-02-13T07:04:21.908Z,4.80
2023-02-13T07:07:14.198Z,4.90
2023-02-13T07:12:31.992Z,4.90
2023-02-13T07:15:08.622Z,4.90
2023-02-13T07:17:43.856Z,5.00
2023-02-13T07:20:17.024Z,5.10
2023-02-13T07:22:49.262Z,5.10
2023-02-13T07:25:20.251Z,5.00
2023-02-13T07:27:50.521Z,5.00
2023-02-13T07:30:22.951Z,5.00
2023-02-13T07:32:56.128Z,5.10
2023-02-13T07:35:30.804Z,5.10
2023-02-13T07:38:02.280Z,5.20
2023-02-13T07:40:31.909Z,5.10
2023-02-13T07:43:03.848Z,5.20
2023-02-13T07:45:35.305Z,5.20
2023-02-13T07:48:05.310Z,5.20
2023-02-13T07:50:41.162Z,5.20
2023-02-13T07:53:13.247Z,5.20
2023-02-13T07:55:45.180Z,5.20
2023-02-13T07:58:25.825Z,5.30
2023-02-13T08:00:57.574Z,5.30
2023-02-13T08:03:28.255Z,5.30
2023-02-13T08:06:09.227Z,5.30
2023-02-13T08:08:40.388Z,5.40
2023-02-13T08:11:43.121Z,5.40
2023-02-13T08:14:16.272Z,5.50
2023-02-13T08:16:47.380Z,4.30
2023-02-13T08:19:19.067Z,5.50
2023-02-13T08:21:50.219Z,5.60
2023-02-13T08:24:19.839Z,5.50
2023-02-13T08:26:49.165Z,5.60
2023-02-13T08:29:18.723Z,5.70
2023-02-13T08:31:48.308Z,5.70
2023-02-13T08:34:19.196Z,5.70
2023-02-13T08:36:50.352Z,5.70
2023-02-13T08:39:19.529Z,5.80
2023-02-13T08:41:48.627Z,5.80
2023-02-13T08:44:18.628Z,5.90
2023-02-13T08:46:50.313Z,5.90
2023-02-13T08:49:23.933Z,6.00
2023-02-13T08:51:55.038Z,6.00
2023-02-13T08:54:24.689Z,6.00
2023-02-13T08:56:53.771Z,6.00
2023-02-13T08:59:23.805Z,6.00
2023-02-13T09:01:54.849Z,5.90
2023-02-13T09:04:23.829Z,5.90
2023-02-13T09:06:54.976Z,5.90
2023-02-13T09:09:24.104Z,6.00
2023-02-13T09:11:54.300Z,6.00
2023-02-13T09:14:25.021Z,6.00
2023-02-13T09:16:54.385Z,6.10
2023-02-13T09:19:23.258Z,6.20
2023-02-13T09:21:54.443Z,6.30
2023-02-13T09:24:23.764Z,6.30
2023-02-13T09:26:52.964Z,6.30
2023-02-13T09:29:22.459Z,6.20
2023-02-13T09:31:54.187Z,6.20
2023-02-13T09:34:25.181Z,6.20
2023-02-13T09:36:56.642Z,5.70
2023-02-13T09:39:26.171Z,6.00
2023-02-13T09:41:58.148Z,5.80
2023-02-13T09:44:36.033Z,5.70
2023-02-13T09:47:14.570Z,5.90
2023-02-13T09:49:51.893Z,5.40
2023-02-13T09:52:24.677Z,5.80
2023-02-13T09:54:56.898Z,5.80
2023-02-13T09:57:37.676Z,5.80
2023-02-13T10:00:15.512Z,6.20
2023-02-13T10:03:04.326Z,6.00
2023-02-13T10:05:46.957Z,6.10
2023-02-13T10:08:34.858Z,6.40
2023-02-13T10:11:10.977Z,6.60
2023-02-13T10:14:04.413Z,6.80
2023-02-13T10:16:40.243Z,6.90
2023-02-13T10:19:25.629Z,7.00
2023-02-13T10:22:20.054Z,7.00
2023-02-13T10:24:58.975Z,7.00
2023-02-13T10:27:36.912Z,7.10
2023-02-13T10:30:24.010Z,6.90
2023-02-13T10:33:37.104Z,6.90
2023-02-13T10:36:28.848Z,6.70
2023-02-13T10:39:19.864Z,7.50
2023-02-13T10:42:36.430Z,7.70
2023-02-13T10:48:58.822Z,8.80
2023-02-13T10:51:43.962Z,8.40
2023-02-13T10:54:29.794Z,8.60
2023-02-13T10:57:13.775Z,8.30
2023-02-13T11:00:06.401Z,8.10
2023-02-13T11:02:40.117Z,8.10
2023-02-13T11:05:41.732Z,8.10
2023-02-13T11:08:43.507Z,7.90
2023-02-13T11:11:40.850Z,7.60
2023-02-13T11:14:32.301Z,7.30
2023-02-13T11:20:49.123Z,7.10
2023-02-13T11:27:14.481Z,6.80
2023-02-13T11:30:29.528Z,7.10
2023-02-13T11:33:27.123Z,7.10
2023-02-13T11:36:27.191Z,7.40
2023-02-13T11:39:18.267Z,6.30
2023-02-13T11:41:54.843Z,7.50
2023-02-13T11:44:34.253Z,7.20
2023-02-13T11:47:34.237Z,7.10
2023-02-13T11:50:37.443Z,7.00
2023-02-13T11:53:31.911Z,7.00
2023-02-13T11:56:28.331Z,7.00
2023-02-13T11:59:50.640Z,7.00
2023-02-13T12:03:06.198Z,6.40
2023-02-13T12:06:17.217Z,6.90
2023-02-13T12:09:29.610Z,7.20
2023-02-13T12:12:59.626Z,7.10
2023-02-13T12:15:48.997Z,7.10
2023-02-13T12:18:45.723Z,7.10
2023-02-13T12:21:31.602Z,7.10
2023-02-13T12:24:13.153Z,7.00
2023-02-13T12:27:00.714Z,7.00
2023-02-13T12:30:00.672Z,6.90
2023-02-13T12:32:51.785Z,6.80
2023-02-13T12:36:03.710Z,6.70
2023-02-13T12:39:07.133Z,6.90
2023-02-13T12:41:55.597Z,5.80
2023-02-13T12:45:03.096Z,6.70
2023-02-13T12:48:04.145Z,6.70
2023-02-13T12:50:59.364Z,6.70
2023-02-13T12:53:57.189Z,6.50
2023-02-13T12:56:56.568Z,6.50
2023-02-13T12:59:59.134Z,6.40
2023-02-13T13:03:28.967Z,6.40
2023-02-13T13:07:17.136Z,6.40
2023-02-13T13:10:18.861Z,6.50
2023-02-13T13:16:47.751Z,6.30
2023-02-13T13:19:46.334Z,6.10
2023-02-13T13:22:36.951Z,6.30
2023-02-13T13:25:23.953Z,6.60
2023-02-13T13:28:00.510Z,6.70
2023-02-13T13:30:35.678Z,6.60
2023-02-13T13:33:18.018Z,7.70
2023-02-13T13:35:57.628Z,6.60
2023-02-13T13:38:41.909Z,6.50
2023-02-13T13:41:34.635Z,6.70
2023-02-13T13:44:14.684Z,5.70
2023-02-13T13:46:58.345Z,6.50
2023-02-13T13:49:47.332Z,6.50
2023-02-13T13:52:37.835Z,6.20
2023-02-13T13:55:49.683Z,6.40
2023-02-13T13:58:26.091Z,6.50
2023-02-13T14:01:26.533Z,6.40
2023-02-13T14:04:26.771Z,5.60
2023-02-13T14:07:26.171Z,6.40
2023-02-13T14:09:59.403Z,6.40
2023-02-13T14:12:51.774Z,6.40
2023-02-13T14:15:52.565Z,6.40
2023-02-13T14:18:24.846Z,6.40
2023-02-13T14:20:57.180Z,6.40
2023-02-13T14:23:38.234Z,6.30
2023-02-13T14:26:34.434Z,6.40
2023-02-13T14:29:23.354Z,6.30
2023-02-13T14:32:22.668Z,6.30
2023-02-13T14:34:59.719Z,6.30
2023-02-13T14:37:40.511Z,6.30
2023-02-13T14:40:42.584Z,6.30
2023-02-13T14:43:30.647Z,6.20
2023-02-13T14:46:09.938Z,6.20
2023-02-13T14:48:44.822Z,6.20
2023-02-13T14:51:29.281Z,6.20
2023-02-13T14:54:03.674Z,6.20
2023-02-13T14:56:33.573Z,6.20
2023-02-13T14:59:13.422Z,6.20
2023-02-13T15:01:52.486Z,6.20
2023-02-13T15:04:28.414Z,6.10
2023-02-13T15:06:59.302Z,6.10
2023-02-13T15:09:39.224Z,6.10
2023-02-13T15:12:28.540Z,6.10
2023-02-13T15:15:02.013Z,6.10
2023-02-13T15:17:41.231Z,6.00
2023-02-13T15:20:24.584Z,6.00
2023-02-13T15:22:56.686Z,6.10
2023-02-13T15:25:31.165Z,6.00
2023-02-13T15:28:02.646Z,6.00
2023-02-13T15:30:36.646Z,6.00
2023-02-13T15:33:17.389Z,6.00
2023-02-13T15:35:47.078Z,6.00
2023-02-13T15:38:21.996Z,6.00
2023-02-13T15:40:54.714Z,6.00
2023-02-13T15:43:30.050Z,5.90
2023-02-13T15:46:34.145Z,5.90
2023-02-13T15:49:09.627Z,6.00
2023-02-13T15:51:47.595Z,5.90
2023-02-13T15:54:34.074Z,5.90
2023-02-13T15:57:07.858Z,5.90
2023-02-13T15:59:39.692Z,5.80
2023-02-13T16:02:17.463Z,5.90
2023-02-13T16:04:49.949Z,5.80
2023-02-13T16:07:20.861Z,5.80
2023-02-13T16:09:53.605Z,5.70
2023-02-13T16:12:26.211Z,5.70
2023-02-13T16:14:58.159Z,5.70
2023-02-13T16:17:35.366Z,5.70
2023-02-13T16:20:22.044Z,5.60
2023-02-13T16:22:55.020Z,5.60
2023-02-13T16:25:30.200Z,5.60
2023-02-13T16:28:16.886Z,5.50
2023-02-13T16:30:48.977Z,5.60
2023-02-13T16:33:29.741Z,5.50
2023-02-13T16:36:01.870Z,5.60
2023-02-13T16:38:36.117Z,5.60
2023-02-13T16:41:08.654Z,5.50
2023-02-13T16:43:42.270Z,5.40
2023-02-13T16:46:48.486Z,5.40
2023-02-13T16:49:36.790Z,5.40
2023-02-13T16:52:14.337Z,5.40
2023-02-13T16:54:57.436Z,5.40
2023-02-13T16:57:32.130Z,4.70
2023-02-13T17:00:09.370Z,5.50
2023-02-13T17:02:41.676Z,5.70
2023-02-13T17:05:31.230Z,5.40
2023-02-13T17:08:11.711Z,5.40
2023-02-13T17:11:05.703Z,5.40
2023-02-13T17:13:37.335Z,5.30
2023-02-13T17:16:07.605Z,5.40
2023-02-13T17:18:38.234Z,5.30
2023-02-13T17:21:11.007Z,5.20
2023-02-13T17:23:40.756Z,5.30
2023-02-13T17:26:09.920Z,5.20
2023-02-13T17:28:39.291Z,5.30
2023-02-13T17:31:14.494Z,5.30
2023-02-13T17:33:45.670Z,5.20
2023-02-13T17:36:16.913Z,5.30
2023-02-13T17:38:47.032Z,5.30
2023-02-13T17:41:18.801Z,5.40
2023-02-13T17:43:48.055Z,5.40
2023-02-13T17:46:18.910Z,5.40
2023-02-13T17:48:51.452Z,5.40
2023-02-13T17:51:23.406Z,5.40
2023-02-13T17:53:53.299Z,5.40
2023-02-13T17:59:13.384Z,5.60
2023-02-13T18:01:43.229Z,5.40
2023-02-13T18:04:16.719Z,5.50
2023-02-13T18:07:04.306Z,5.60
2023-02-13T18:09:40.334Z,5.50
2023-02-13T18:12:16.213Z,5.30
2023-02-13T18:14:51.319Z,5.50
2023-02-13T18:17:27.067Z,5.30
2023-02-13T18:20:03.072Z,5.50
2023-02-13T18:22:35.520Z,5.50
2023-02-13T18:25:11.611Z,5.60
2023-02-13T18:27:46.048Z,5.60
2023-02-13T18:30:18.703Z,4.90
2023-02-13T18:32:48.352Z,5.50
2023-02-13T18:35:19.375Z,5.50
2023-02-13T18:37:51.483Z,5.50
2023-02-13T18:40:21.645Z,5.50
2023-02-13T18:42:53.147Z,5.50
2023-02-13T18:45:24.051Z,5.50
2023-02-13T18:47:53.909Z,5.50
2023-02-13T18:50:24.417Z,5.50
2023-02-13T18:52:57.768Z,5.50
2023-02-13T18:55:26.980Z,5.50
2023-02-13T18:57:57.124Z,5.50
2023-02-13T19:00:26.954Z,5.60
2023-02-13T19:02:58.271Z,5.50
2023-02-13T19:05:29.005Z,5.50
2023-02-13T19:08:01.053Z,5.50
2023-02-13T19:10:30.726Z,5.50
2023-02-13T19:12:59.468Z,5.50
2023-02-13T19:15:31.388Z,5.50
2023-02-13T19:18:01.434Z,5.50
2023-02-13T19:20:30.333Z,5.50
2023-02-13T19:23:01.000Z,5.50
2023-02-13T19:25:32.940Z,5.50
2023-02-13T19:28:05.060Z,5.60
2023-02-13T19:30:35.790Z,5.60
2023-02-13T19:33:09.244Z,5.50
2023-02-13T19:35:48.168Z,5.50
2023-02-13T19:38:29.108Z,5.60
2023-02-13T19:41:03.950Z,5.70
2023-02-13T19:43:33.890Z,4.20
2023-02-13T19:46:05.493Z,5.50
2023-02-13T19:48:36.046Z,5.60
2023-02-13T19:51:08.816Z,5.60
2023-02-13T19:53:41.603Z,5.50
2023-02-13T19:56:12.035Z,5.50
2023-02-13T19:58:42.662Z,5.60
2023-02-13T20:01:13.829Z,4.80
2023-02-13T20:03:43.779Z,5.60
2023-02-13T20:06:29.645Z,5.60
2023-02-13T20:09:02.651Z,5.60
2023-02-13T20:11:32.352Z,5.60
2023-02-13T20:14:04.569Z,5.60
2023-02-13T20:16:38.676Z,5.60
2023-02-13T20:19:12.020Z,5.80
2023-02-13T20:21:42.900Z,5.80
2023-02-13T20:24:14.235Z,5.70
2023-02-13T20:26:44.602Z,5.70
2023-02-13T20:29:14.859Z,5.70
2023-02-13T20:31:44.545Z,5.70
2023-02-13T20:34:14.029Z,5.60
2023-02-13T20:36:43.889Z,5.60
2023-02-13T20:39:15.446Z,5.60
2023-02-13T20:41:49.026Z,5.60
2023-02-13T20:44:29.448Z,5.70
2023-02-13T20:47:18.544Z,5.60
2023-02-13T20:49:48.260Z,5.60
2023-02-13T20:52:17.572Z,5.50
2023-02-13T20:54:55.387Z,5.50
2023-02-13T20:57:27.211Z,5.50
2023-02-13T20:59:59.463Z,5.50
2023-02-13T21:02:32.379Z,5.60
2023-02-13T21:05:08.281Z,5.50
2023-02-13T21:07:40.918Z,5.40
2023-02-13T21:10:12.882Z,5.50
2023-02-13T21:12:42.532Z,5.50
2023-02-13T21:15:12.796Z,5.60
2023-02-13T21:17:42.953Z,5.40
2023-02-13T21:20:18.623Z,5.40
2023-02-13T21:22:53.135Z,5.30
2023-02-13T21:25:25.530Z,5.30
2023-02-13T21:27:56.050Z,5.30
2023-02-13T21:30:25.527Z,5.20
2023-02-13T21:32:56.634Z,5.20
2023-02-13T21:35:27.640Z,5.10
2023-02-13T21:37:57.168Z,5.20
2023-02-13T21:40:29.371Z,5.20
2023-02-13T21:42:58.885Z,5.20
2023-02-13T21:45:31.544Z,5.20
2023-02-13T21:48:01.615Z,4.80
2023-02-13T21:50:35.683Z,4.90
2023-02-13T21:53:05.424Z,5.10
2023-02-13T21:55:37.263Z,5.10
2023-02-13T21:58:07.319Z,5.10
2023-02-13T22:00:36.967Z,5.10
2023-02-13T22:03:14.215Z,5.20
2023-02-13T22:05:50.562Z,5.40
2023-02-13T22:08:20.138Z,5.10
2023-02-13T22:10:57.856Z,5.10
2023-02-13T22:13:28.615Z,5.30
2023-02-13T22:16:03.585Z,5.00
2023-02-13T22:18:34.967Z,5.00
2023-02-13T22:21:08.209Z,3.60
2023-02-13T22:23:43.217Z,5.00
2023-02-13T22:26:18.547Z,4.90
2023-02-13T22:28:48.423Z,4.90
2023-02-13T22:31:18.766Z,4.90
2023-02-13T22:33:58.456Z,4.90
2023-02-13T22:36:33.091Z,5.00
2023-02-13T22:39:02.666Z,5.00
2023-02-13T22:41:36.987Z,4.70
2023-02-13T22:44:08.740Z,4.70
2023-02-13T22:46:37.962Z,4.80
2023-02-13T22:49:07.613Z,4.70
2023-02-13T22:51:39.593Z,4.40
2023-02-13T22:54:10.002Z,4.60
2023-02-13T22:56:42.684Z,4.80
2023-02-13T22:59:14.588Z,3.70
2023-02-13T23:01:44.805Z,4.70
2023-02-13T23:04:16.823Z,4.70
2023-02-13T23:06:47.841Z,4.70
2023-02-13T23:09:17.963Z,4.80
2023-02-13T23:12:06.842Z,4.70
2023-02-13T23:14:37.411Z,4.80
2023-02-13T23:17:24.480Z,4.80
2023-02-13T23:19:55.198Z,4.80
2023-02-13T23:22:25.512Z,4.90
2023-02-13T23:24:55.336Z,4.70
2023-02-13T23:27:26.682Z,4.70
2023-02-13T23:29:56.607Z,4.60
2023-02-13T23:32:26.717Z,4.60
2023-02-13T23:35:00.832Z,4.60
2023-02-13T23:37:30.832Z,4.80
2023-02-13T23:40:00.351Z,4.70
2023-02-13T23:42:34.133Z,4.70
2023-02-13T23:45:05.842Z,4.60
2023-02-13T23:47:35.720Z,4.70
2023-02-13T23:50:08.760Z,4.70
2023-02-13T23:52:38.928Z,4.70
2023-02-13T23:55:09.530Z,4.70
2023-02-13T23:57:43.226Z,4.70
